Impacts METAR Board
IDs:

KDFW - Dallas-Ft Worth Intl, TX, US

Updated at: 1400 UTC 19 Aug 2019
Potential Impact None Slight Moderate High
Time 19/02Z 19/03Z 19/04Z 19/05Z 19/06Z 19/07Z 19/08Z 19/09Z 19/10Z 19/11Z 19/12Z 19/13Z 19/14Z
Temp94 91 90 87 87 86 85 84 83 82 81 81 84
Dewpt68 69 67 67 68 70 71 72 72 71 70 71 73
Altim29.82 29.85 29.87 29.88 29.88 29.89 29.89 29.90 29.91 29.94 29.95 29.96 29.98
VIS10 10 10 10 10 10 10 10 10 10 10 10 10
CIG-- 250 250 300 300 -- -- -- -- -- -- -- --
CoverSCTBKNBKNBKNBKNSCTSCTFEWFEWFEWSCTFEWFEW
FltCatVFRVFRVFRVFRVFRVFRVFRVFRVFRVFRVFRVFRVFR
WX--------------------------
WDir150130140150160180170160180180180180180
WSpd12 9 10 8 10 8 9 8 9 8 10 11 12
WGst-- -- -- -- -- -- -- -- -- -- -- -- --
Raw hourly METARs
KDFW 190153Z COR 15012KT 10SM SCT250 34/20 A2982 RMK AO2 SLP089 T03440200 $
KDFW 190253Z 13009KT 10SM BKN250 33/21 A2985 RMK AO2 SLP098 T03280206 53018 $
KDFW 190353Z 14010KT 10SM BKN250 32/19 A2987 RMK AO2 SLPNO T03220194 $
KDFW 190453Z 15008KT 10SM BKN300 31/19 A2988 RMK AO2 SLP106 T03060194 $
KDFW 190553Z 16010KT 10SM BKN300 31/20 A2988 RMK AO2 SLP109 10344 20306 403720272 T03060200 51010 $
KDFW 190653Z 18008KT 10SM SCT300 30/21 A2989 RMK AO2 SLP112 T03000211 $
KDFW 190753Z 17009KT 10SM SCT300 29/22 A2989 RMK AO2 SLP112 T02940217 $
KDFW 190853Z 16008KT 10SM FEW300 29/22 A2990 RMK AO2 SLP114 T02890222 51005 $
KDFW 190953Z 18009KT 10SM FEW120 FEW300 28/22 A2991 RMK AO2 SLP116 T02830222 $
KDFW 191053Z 18008KT 10SM FEW120 FEW300 28/22 A2994 RMK AO2 SLP127 T02780217 $
KDFW 191153Z 18010KT 10SM FEW120 SCT300 27/21 A2995 RMK AO2 SLP131 T02720211 10306 20272 53016 $
KDFW 191253Z 18011KT 10SM FEW120 FEW300 27/22 A2996 RMK AO2 SLP134 T02720217 $
KDFW 191353Z 18012KT 10SM FEW120 FEW300 29/23 A2998 RMK AO2 SLP140 T02890228 $



Page loaded:  14:06 UTC  |   07:06 AM Pacific  |   08:06 AM Mountain  |   09:06 AM Central  |   10:06 AM Eastern

 

ADVISORIES

FORECASTS

FORECASTS

OBSERVATIONS

USER TOOLS

ABOUT US